sensor_id;sensor_type;location;lat;lon;timestamp;temperature;humidity
18508;DHT22;9383;50.928;12.116;2023-11-21T00:00:40;7.90;99.90
18508;DHT22;9383;50.928;12.116;2023-11-21T00:03:06;8.00;99.90
18508;DHT22;9383;50.928;12.116;2023-11-21T00:05:32;7.70;99.90
18508;DHT22;9383;50.928;12.116;2023-11-21T00:08:00;7.70;99.90
18508;DHT22;9383;50.928;12.116;2023-11-21T00:10:26;7.90;99.90
18508;DHT22;9383;50.928;12.116;2023-11-21T00:12:52;7.80;99.90
18508;DHT22;9383;50.928;12.116;2023-11-21T00:15:21;7.90;99.90
18508;DHT22;9383;50.928;12.116;2023-11-21T00:17:47;7.90;99.90
18508;DHT22;9383;50.928;12.116;2023-11-21T00:20:13;7.90;99.90
18508;DHT22;9383;50.928;12.116;2023-11-21T00:22:39;7.80;99.90
18508;DHT22;9383;50.928;12.116;2023-11-21T00:27:35;7.90;99.90
18508;DHT22;9383;50.928;12.116;2023-11-21T00:30:03;7.90;99.90
18508;DHT22;9383;50.928;12.116;2023-11-21T00:35:17;7.90;99.90
18508;DHT22;9383;50.928;12.116;2023-11-21T00:37:44;7.90;99.90
18508;DHT22;9383;50.928;12.116;2023-11-21T00:40:11;7.90;99.90
18508;DHT22;9383;50.928;12.116;2023-11-21T00:42:38;7.90;99.90
18508;DHT22;9383;50.928;12.116;2023-11-21T00:45:05;7.70;99.90
18508;DHT22;9383;50.928;12.116;2023-11-21T00:47:32;7.80;99.90
18508;DHT22;9383;50.928;12.116;2023-11-21T00:49:58;7.90;99.90
18508;DHT22;9383;50.928;12.116;2023-11-21T00:52:25;7.90;99.90
18508;DHT22;9383;50.928;12.116;2023-11-21T00:54:51;7.90;99.90
18508;DHT22;9383;50.928;12.116;2023-11-21T00:57:17;7.80;99.90
18508;DHT22;9383;50.928;12.116;2023-11-21T01:02:11;7.80;99.90
18508;DHT22;9383;50.928;12.116;2023-11-21T01:04:37;7.80;99.90
18508;DHT22;9383;50.928;12.116;2023-11-21T01:07:03;7.80;99.90
18508;DHT22;9383;50.928;12.116;2023-11-21T01:09:31;7.80;99.90
18508;DHT22;9383;50.928;12.116;2023-11-21T01:11:57;7.80;99.90
18508;DHT22;9383;50.928;12.116;2023-11-21T01:14:25;7.90;99.90
18508;DHT22;9383;50.928;12.116;2023-11-21T01:16:53;7.40;99.90
18508;DHT22;9383;50.928;12.116;2023-11-21T01:19:19;7.50;99.90
18508;DHT22;9383;50.928;12.116;2023-11-21T01:21:45;7.70;99.90
18508;DHT22;9383;50.928;12.116;2023-11-21T01:24:12;7.90;99.90
18508;DHT22;9383;50.928;12.116;2023-11-21T01:26:38;7.80;99.90
18508;DHT22;9383;50.928;12.116;2023-11-21T01:29:04;7.70;99.90
18508;DHT22;9383;50.928;12.116;2023-11-21T01:31:34;7.70;99.90
18508;DHT22;9383;50.928;12.116;2023-11-21T01:34:00;7.70;99.90
18508;DHT22;9383;50.928;12.116;2023-11-21T01:36:30;7.70;99.90
18508;DHT22;9383;50.928;12.116;2023-11-21T01:39:01;7.70;99.90
18508;DHT22;9383;50.928;12.116;2023-11-21T01:41:27;7.70;99.90
18508;DHT22;9383;50.928;12.116;2023-11-21T01:43:55;7.70;99.90
18508;DHT22;9383;50.928;12.116;2023-11-21T01:46:22;7.60;99.90
18508;DHT22;9383;50.928;12.116;2023-11-21T01:48:51;7.60;99.90
18508;DHT22;9383;50.928;12.116;2023-11-21T01:51:18;7.60;99.90
18508;DHT22;9383;50.928;12.116;2023-11-21T01:53:45;7.60;99.90
18508;DHT22;9383;50.928;12.116;2023-11-21T01:56:13;7.40;99.90
18508;DHT22;9383;50.928;12.116;2023-11-21T01:58:40;7.60;99.90
18508;DHT22;9383;50.928;12.116;2023-11-21T02:01:07;7.50;99.90
18508;DHT22;9383;50.928;12.116;2023-11-21T02:03:33;7.60;99.90
18508;DHT22;9383;50.928;12.116;2023-11-21T02:05:59;7.50;99.90
18508;DHT22;9383;50.928;12.116;2023-11-21T02:08:25;7.50;99.90
18508;DHT22;9383;50.928;12.116;2023-11-21T02:10:52;7.50;99.90
18508;DHT22;9383;50.928;12.116;2023-11-21T02:13:18;7.60;99.90
18508;DHT22;9383;50.928;12.116;2023-11-21T02:15:44;7.50;99.90
18508;DHT22;9383;50.928;12.116;2023-11-21T02:18:11;7.50;99.90
18508;DHT22;9383;50.928;12.116;2023-11-21T02:20:37;7.50;99.90
18508;DHT22;9383;50.928;12.116;2023-11-21T02:23:05;7.50;99.90
18508;DHT22;9383;50.928;12.116;2023-11-21T02:25:32;7.50;99.90
18508;DHT22;9383;50.928;12.116;2023-11-21T02:28:01;7.50;99.90
18508;DHT22;9383;50.928;12.116;2023-11-21T02:30:29;7.40;99.90
18508;DHT22;9383;50.928;12.116;2023-11-21T02:32:57;7.50;99.90
18508;DHT22;9383;50.928;12.116;2023-11-21T02:35:24;7.40;99.90
18508;DHT22;9383;50.928;12.116;2023-11-21T02:40:20;7.50;99.90
18508;DHT22;9383;50.928;12.116;2023-11-21T02:45:14;7.50;99.90
18508;DHT22;9383;50.928;12.116;2023-11-21T02:47:45;7.40;99.90
18508;DHT22;9383;50.928;12.116;2023-11-21T02:50:11;7.40;99.90
18508;DHT22;9383;50.928;12.116;2023-11-21T02:52:38;7.40;99.90
18508;DHT22;9383;50.928;12.116;2023-11-21T02:55:06;7.40;99.90
18508;DHT22;9383;50.928;12.116;2023-11-21T02:57:33;7.40;99.90
18508;DHT22;9383;50.928;12.116;2023-11-21T02:59:59;7.40;99.90
18508;DHT22;9383;50.928;12.116;2023-11-21T03:02:28;7.40;99.90
18508;DHT22;9383;50.928;12.116;2023-11-21T03:04:55;7.40;99.90
18508;DHT22;9383;50.928;12.116;2023-11-21T03:07:21;5.90;99.90
18508;DHT22;9383;50.928;12.116;2023-11-21T03:09:47;7.40;99.90
18508;DHT22;9383;50.928;12.116;2023-11-21T03:12:13;7.30;99.90
18508;DHT22;9383;50.928;12.116;2023-11-21T03:14:40;7.30;99.90
18508;DHT22;9383;50.928;12.116;2023-11-21T03:17:06;7.30;99.90
18508;DHT22;9383;50.928;12.116;2023-11-21T03:19:32;7.30;99.90
18508;DHT22;9383;50.928;12.116;2023-11-21T03:21:58;7.40;99.90
18508;DHT22;9383;50.928;12.116;2023-11-21T03:24:25;7.30;99.90
18508;DHT22;9383;50.928;12.116;2023-11-21T03:26:52;7.30;99.90
18508;DHT22;9383;50.928;12.116;2023-11-21T03:29:18;7.30;99.90
18508;DHT22;9383;50.928;12.116;2023-11-21T03:31:46;7.30;99.90
18508;DHT22;9383;50.928;12.116;2023-11-21T03:34:23;7.30;99.90
18508;DHT22;9383;50.928;12.116;2023-11-21T03:36:51;7.30;99.90
18508;DHT22;9383;50.928;12.116;2023-11-21T03:39:24;7.30;99.90
18508;DHT22;9383;50.928;12.116;2023-11-21T03:41:51;7.30;99.90
18508;DHT22;9383;50.928;12.116;2023-11-21T03:44:17;7.30;99.90
18508;DHT22;9383;50.928;12.116;2023-11-21T03:46:44;7.30;99.90
18508;DHT22;9383;50.928;12.116;2023-11-21T03:49:10;7.30;99.90
18508;DHT22;9383;50.928;12.116;2023-11-21T03:51:36;7.30;99.90
18508;DHT22;9383;50.928;12.116;2023-11-21T03:54:03;7.20;99.90
18508;DHT22;9383;50.928;12.116;2023-11-21T03:56:30;7.20;99.90
18508;DHT22;9383;50.928;12.116;2023-11-21T03:58:56;7.20;99.90
18508;DHT22;9383;50.928;12.116;2023-11-21T04:01:22;7.20;99.90
18508;DHT22;9383;50.928;12.116;2023-11-21T04:03:49;7.30;99.90
18508;DHT22;9383;50.928;12.116;2023-11-21T04:06:17;7.20;99.90
18508;DHT22;9383;50.928;12.116;2023-11-21T04:08:44;7.30;99.90
18508;DHT22;9383;50.928;12.116;2023-11-21T04:11:11;7.20;99.90
18508;DHT22;9383;50.928;12.116;2023-11-21T04:13:39;7.30;99.90
18508;DHT22;9383;50.928;12.116;2023-11-21T04:16:07;7.20;99.90
18508;DHT22;9383;50.928;12.116;2023-11-21T04:18:36;7.30;99.90
18508;DHT22;9383;50.928;12.116;2023-11-21T04:21:04;7.20;99.90
18508;DHT22;9383;50.928;12.116;2023-11-21T04:23:31;7.20;99.90
18508;DHT22;9383;50.928;12.116;2023-11-21T04:28:24;7.20;99.90
18508;DHT22;9383;50.928;12.116;2023-11-21T04:30:51;7.20;99.90
18508;DHT22;9383;50.928;12.116;2023-11-21T04:33:17;7.20;99.90
18508;DHT22;9383;50.928;12.116;2023-11-21T04:35:43;7.20;99.90
18508;DHT22;9383;50.928;12.116;2023-11-21T04:38:09;7.20;99.90
18508;DHT22;9383;50.928;12.116;2023-11-21T04:40:35;7.20;99.90
18508;DHT22;9383;50.928;12.116;2023-11-21T04:43:11;7.20;99.90
18508;DHT22;9383;50.928;12.116;2023-11-21T04:45:37;7.20;99.90
18508;DHT22;9383;50.928;12.116;2023-11-21T04:48:04;7.20;99.90
18508;DHT22;9383;50.928;12.116;2023-11-21T04:50:32;7.20;99.90
18508;DHT22;9383;50.928;12.116;2023-11-21T04:52:58;7.10;99.90
18508;DHT22;9383;50.928;12.116;2023-11-21T04:55:24;7.10;99.90
18508;DHT22;9383;50.928;12.116;2023-11-21T04:57:54;7.10;99.90
18508;DHT22;9383;50.928;12.116;2023-11-21T05:00:20;7.10;99.90
18508;DHT22;9383;50.928;12.116;2023-11-21T05:02:47;7.10;99.90
18508;DHT22;9383;50.928;12.116;2023-11-21T05:05:13;7.00;99.90
18508;DHT22;9383;50.928;12.116;2023-11-21T05:07:40;7.00;99.90
18508;DHT22;9383;50.928;12.116;2023-11-21T05:10:08;6.90;99.90
18508;DHT22;9383;50.928;12.116;2023-11-21T05:12:37;6.90;99.90
18508;DHT22;9383;50.928;12.116;2023-11-21T05:15:06;6.70;99.90
18508;DHT22;9383;50.928;12.116;2023-11-21T05:17:33;6.70;99.90
18508;DHT22;9383;50.928;12.116;2023-11-21T05:20:00;6.60;99.90
18508;DHT22;9383;50.928;12.116;2023-11-21T05:22:29;6.60;99.90
18508;DHT22;9383;50.928;12.116;2023-11-21T05:24:56;6.50;99.90
18508;DHT22;9383;50.928;12.116;2023-11-21T05:27:22;6.40;99.90
18508;DHT22;9383;50.928;12.116;2023-11-21T05:29:48;6.30;99.90
18508;DHT22;9383;50.928;12.116;2023-11-21T05:32:15;6.30;99.90
18508;DHT22;9383;50.928;12.116;2023-11-21T05:34:42;6.20;99.90
18508;DHT22;9383;50.928;12.116;2023-11-21T05:37:08;6.10;99.90
18508;DHT22;9383;50.928;12.116;2023-11-21T05:39:34;6.10;99.90
18508;DHT22;9383;50.928;12.116;2023-11-21T05:42:01;6.00;99.90
18508;DHT22;9383;50.928;12.116;2023-11-21T05:44:29;5.80;99.90
18508;DHT22;9383;50.928;12.116;2023-11-21T05:46:56;5.60;99.90
18508;DHT22;9383;50.928;12.116;2023-11-21T05:49:22;5.70;99.90
18508;DHT22;9383;50.928;12.116;2023-11-21T05:51:56;5.60;99.90
18508;DHT22;9383;50.928;12.116;2023-11-21T05:54:22;5.50;99.90
18508;DHT22;9383;50.928;12.116;2023-11-21T05:56:49;5.40;99.90
18508;DHT22;9383;50.928;12.116;2023-11-21T06:01:42;5.30;99.90
18508;DHT22;9383;50.928;12.116;2023-11-21T06:04:08;5.20;99.90
18508;DHT22;9383;50.928;12.116;2023-11-21T06:06:36;5.20;99.90
18508;DHT22;9383;50.928;12.116;2023-11-21T06:09:18;5.10;99.90
18508;DHT22;9383;50.928;12.116;2023-11-21T06:11:47;5.00;99.90
18508;DHT22;9383;50.928;12.116;2023-11-21T06:14:14;5.00;99.90
18508;DHT22;9383;50.928;12.116;2023-11-21T06:16:44;4.90;99.90
18508;DHT22;9383;50.928;12.116;2023-11-21T06:19:11;5.80;99.90
18508;DHT22;9383;50.928;12.116;2023-11-21T06:21:38;4.70;99.90
18508;DHT22;9383;50.928;12.116;2023-11-21T06:24:04;4.60;99.90
18508;DHT22;9383;50.928;12.116;2023-11-21T06:26:31;4.60;99.90
18508;DHT22;9383;50.928;12.116;2023-11-21T06:28:58;4.60;99.90
18508;DHT22;9383;50.928;12.116;2023-11-21T06:31:24;4.50;99.90
18508;DHT22;9383;50.928;12.116;2023-11-21T06:33:50;4.50;99.90
18508;DHT22;9383;50.928;12.116;2023-11-21T06:38:47;4.40;99.90
18508;DHT22;9383;50.928;12.116;2023-11-21T06:41:13;4.30;99.90
18508;DHT22;9383;50.928;12.116;2023-11-21T06:43:41;4.30;99.90
18508;DHT22;9383;50.928;12.116;2023-11-21T06:46:13;4.20;99.90
18508;DHT22;9383;50.928;12.116;2023-11-21T06:48:42;4.20;99.90
18508;DHT22;9383;50.928;12.116;2023-11-21T06:53:36;4.20;99.90
18508;DHT22;9383;50.928;12.116;2023-11-21T06:56:04;4.20;99.90
18508;DHT22;9383;50.928;12.116;2023-11-21T06:58:33;4.20;99.90
18508;DHT22;9383;50.928;12.116;2023-11-21T07:00:59;4.20;99.90
18508;DHT22;9383;50.928;12.116;2023-11-21T07:03:26;4.20;99.90
18508;DHT22;9383;50.928;12.116;2023-11-21T07:05:52;4.20;99.90
18508;DHT22;9383;50.928;12.116;2023-11-21T07:08:18;4.20;99.90
18508;DHT22;9383;50.928;12.116;2023-11-21T07:15:38;4.30;99.90
18508;DHT22;9383;50.928;12.116;2023-11-21T07:18:04;4.30;99.90
18508;DHT22;9383;50.928;12.116;2023-11-21T07:20:34;4.40;99.90
18508;DHT22;9383;50.928;12.116;2023-11-21T07:23:00;4.40;99.90
18508;DHT22;9383;50.928;12.116;2023-11-21T07:25:26;4.40;99.90
18508;DHT22;9383;50.928;12.116;2023-11-21T07:27:54;4.50;99.90
18508;DHT22;9383;50.928;12.116;2023-11-21T07:30:20;4.50;99.90
18508;DHT22;9383;50.928;12.116;2023-11-21T07:35:15;4.60;99.90
18508;DHT22;9383;50.928;12.116;2023-11-21T07:40:08;4.70;99.90
18508;DHT22;9383;50.928;12.116;2023-11-21T07:42:38;4.80;99.90
18508;DHT22;9383;50.928;12.116;2023-11-21T07:45:05;4.90;99.90
18508;DHT22;9383;50.928;12.116;2023-11-21T07:47:33;5.00;99.90
18508;DHT22;9383;50.928;12.116;2023-11-21T07:50:03;5.10;99.90
18508;DHT22;9383;50.928;12.116;2023-11-21T07:52:29;5.10;99.90
18508;DHT22;9383;50.928;12.116;2023-11-21T07:54:55;6.40;99.90
18508;DHT22;9383;50.928;12.116;2023-11-21T07:57:22;7.50;99.90
18508;DHT22;9383;50.928;12.116;2023-11-21T07:59:48;5.30;99.90
18508;DHT22;9383;50.928;12.116;2023-11-21T08:02:14;5.40;99.90
18508;DHT22;9383;50.928;12.116;2023-11-21T08:04:42;5.40;99.90
18508;DHT22;9383;50.928;12.116;2023-11-21T08:07:09;5.50;99.90
18508;DHT22;9383;50.928;12.116;2023-11-21T08:09:40;5.60;99.90
18508;DHT22;9383;50.928;12.116;2023-11-21T08:12:08;5.70;99.90
18508;DHT22;9383;50.928;12.116;2023-11-21T08:14:36;5.80;99.90
18508;DHT22;9383;50.928;12.116;2023-11-21T08:19:32;6.00;99.90
18508;DHT22;9383;50.928;12.116;2023-11-21T08:24:28;6.30;99.90
18508;DHT22;9383;50.928;12.116;2023-11-21T08:26:54;6.20;99.90
18508;DHT22;9383;50.928;12.116;2023-11-21T08:31:47;6.20;99.90
18508;DHT22;9383;50.928;12.116;2023-11-21T08:34:14;6.30;99.90
18508;DHT22;9383;50.928;12.116;2023-11-21T08:36:44;6.40;99.90
18508;DHT22;9383;50.928;12.116;2023-11-21T08:39:10;6.40;99.90
18508;DHT22;9383;50.928;12.116;2023-11-21T08:41:36;6.50;99.90
18508;DHT22;9383;50.928;12.116;2023-11-21T08:44:04;6.50;99.90
18508;DHT22;9383;50.928;12.116;2023-11-21T08:49:02;6.70;99.90
18508;DHT22;9383;50.928;12.116;2023-11-21T08:51:28;6.70;99.90
18508;DHT22;9383;50.928;12.116;2023-11-21T08:56:27;6.80;99.90
18508;DHT22;9383;50.928;12.116;2023-11-21T08:58:53;6.90;99.90
18508;DHT22;9383;50.928;12.116;2023-11-21T09:01:20;6.90;99.90
18508;DHT22;9383;50.928;12.116;2023-11-21T09:03:46;7.00;99.90
18508;DHT22;9383;50.928;12.116;2023-11-21T09:06:13;7.10;99.90
18508;DHT22;9383;50.928;12.116;2023-11-21T09:08:40;7.10;99.90
18508;DHT22;9383;50.928;12.116;2023-11-21T09:11:07;7.10;99.90
18508;DHT22;9383;50.928;12.116;2023-11-21T09:13:33;7.20;99.90
18508;DHT22;9383;50.928;12.116;2023-11-21T09:16:02;7.10;99.90
18508;DHT22;9383;50.928;12.116;2023-11-21T09:18:28;7.20;99.90
18508;DHT22;9383;50.928;12.116;2023-11-21T09:20:55;7.30;99.90
18508;DHT22;9383;50.928;12.116;2023-11-21T09:23:21;7.30;99.90
18508;DHT22;9383;50.928;12.116;2023-11-21T09:25:48;7.30;99.90
18508;DHT22;9383;50.928;12.116;2023-11-21T09:28:16;7.30;99.90
18508;DHT22;9383;50.928;12.116;2023-11-21T09:30:44;7.40;99.90
18508;DHT22;9383;50.928;12.116;2023-11-21T09:33:11;7.40;99.90
18508;DHT22;9383;50.928;12.116;2023-11-21T09:35:38;7.40;99.90
18508;DHT22;9383;50.928;12.116;2023-11-21T09:38:04;7.40;99.90
18508;DHT22;9383;50.928;12.116;2023-11-21T09:40:37;7.40;99.90
18508;DHT22;9383;50.928;12.116;2023-11-21T09:43:08;7.50;99.90
18508;DHT22;9383;50.928;12.116;2023-11-21T09:45:47;7.50;99.90
18508;DHT22;9383;50.928;12.116;2023-11-21T09:48:20;7.50;99.90
18508;DHT22;9383;50.928;12.116;2023-11-21T09:50:47;7.60;99.90
18508;DHT22;9383;50.928;12.116;2023-11-21T09:55:56;7.50;99.90
18508;DHT22;9383;50.928;12.116;2023-11-21T09:58:23;7.50;99.90
18508;DHT22;9383;50.928;12.116;2023-11-21T10:00:53;7.50;99.90
18508;DHT22;9383;50.928;12.116;2023-11-21T10:03:30;7.50;99.90
18508;DHT22;9383;50.928;12.116;2023-11-21T10:05:57;7.50;99.90
18508;DHT22;9383;50.928;12.116;2023-11-21T10:08:27;7.60;99.90
18508;DHT22;9383;50.928;12.116;2023-11-21T10:10:55;7.50;99.90
18508;DHT22;9383;50.928;12.116;2023-11-21T10:13:23;7.60;99.90
18508;DHT22;9383;50.928;12.116;2023-11-21T10:15:51;7.50;99.90
18508;DHT22;9383;50.928;12.116;2023-11-21T10:18:38;7.50;99.90
18508;DHT22;9383;50.928;12.116;2023-11-21T10:21:07;7.50;99.90
18508;DHT22;9383;50.928;12.116;2023-11-21T10:23:35;7.50;99.90
18508;DHT22;9383;50.928;12.116;2023-11-21T10:26:02;7.50;99.90
18508;DHT22;9383;50.928;12.116;2023-11-21T10:28:30;7.50;99.90
18508;DHT22;9383;50.928;12.116;2023-11-21T10:31:11;7.50;99.90
18508;DHT22;9383;50.928;12.116;2023-11-21T10:33:38;7.50;99.90
18508;DHT22;9383;50.928;12.116;2023-11-21T10:36:09;7.50;99.90
18508;DHT22;9383;50.928;12.116;2023-11-21T10:38:45;9.30;99.90
18508;DHT22;9383;50.928;12.116;2023-11-21T10:41:19;7.50;99.90
18508;DHT22;9383;50.928;12.116;2023-11-21T10:43:47;7.50;99.90
18508;DHT22;9383;50.928;12.116;2023-11-21T10:46:14;7.50;99.90
18508;DHT22;9383;50.928;12.116;2023-11-21T10:48:42;7.50;99.90
18508;DHT22;9383;50.928;12.116;2023-11-21T10:51:08;7.50;99.90
18508;DHT22;9383;50.928;12.116;2023-11-21T10:53:39;7.50;99.90
18508;DHT22;9383;50.928;12.116;2023-11-21T10:56:09;7.50;99.90
18508;DHT22;9383;50.928;12.116;2023-11-21T10:58:45;7.60;99.90
18508;DHT22;9383;50.928;12.116;2023-11-21T11:01:12;6.80;99.90
18508;DHT22;9383;50.928;12.116;2023-11-21T11:03:45;7.70;99.90
18508;DHT22;9383;50.928;12.116;2023-11-21T11:06:14;7.60;99.90
18508;DHT22;9383;50.928;12.116;2023-11-21T11:08:42;7.60;99.90
18508;DHT22;9383;50.928;12.116;2023-11-21T11:11:09;7.60;99.90
18508;DHT22;9383;50.928;12.116;2023-11-21T11:13:43;7.70;99.90
18508;DHT22;9383;50.928;12.116;2023-11-21T11:16:12;7.60;99.90
18508;DHT22;9383;50.928;12.116;2023-11-21T11:30:57;7.60;99.90
18508;DHT22;9383;50.928;12.116;2023-11-21T11:33:39;7.50;99.90
18508;DHT22;9383;50.928;12.116;2023-11-21T11:36:34;7.50;99.90
18508;DHT22;9383;50.928;12.116;2023-11-21T11:39:30;7.50;99.90
18508;DHT22;9383;50.928;12.116;2023-11-21T11:42:02;7.50;99.90
18508;DHT22;9383;50.928;12.116;2023-11-21T11:47:34;7.50;99.90
18508;DHT22;9383;50.928;12.116;2023-11-21T11:50:11;7.40;99.90
18508;DHT22;9383;50.928;12.116;2023-11-21T11:52:41;7.40;99.90
18508;DHT22;9383;50.928;12.116;2023-11-21T11:55:13;7.50;99.90
18508;DHT22;9383;50.928;12.116;2023-11-21T11:57:41;7.40;99.90
18508;DHT22;9383;50.928;12.116;2023-11-21T12:02:44;7.40;99.90
18508;DHT22;9383;50.928;12.116;2023-11-21T12:05:14;7.40;99.90
18508;DHT22;9383;50.928;12.116;2023-11-21T12:07:47;7.50;99.90
18508;DHT22;9383;50.928;12.116;2023-11-21T12:10:17;7.50;99.90
18508;DHT22;9383;50.928;12.116;2023-11-21T12:12:46;8.50;99.90
18508;DHT22;9383;50.928;12.116;2023-11-21T12:15:15;7.40;99.90
18508;DHT22;9383;50.928;12.116;2023-11-21T12:17:43;7.40;99.90
18508;DHT22;9383;50.928;12.116;2023-11-21T12:20:11;7.30;99.90
18508;DHT22;9383;50.928;12.116;2023-11-21T12:22:44;7.30;99.90
18508;DHT22;9383;50.928;12.116;2023-11-21T12:25:17;7.20;99.90
18508;DHT22;9383;50.928;12.116;2023-11-21T12:27:47;7.20;99.90
18508;DHT22;9383;50.928;12.116;2023-11-21T12:30:17;7.10;99.90
18508;DHT22;9383;50.928;12.116;2023-11-21T12:32:50;7.10;99.90
18508;DHT22;9383;50.928;12.116;2023-11-21T12:35:18;7.10;99.90
18508;DHT22;9383;50.928;12.116;2023-11-21T12:40:15;7.00;99.90
18508;DHT22;9383;50.928;12.116;2023-11-21T12:42:44;7.00;99.90
18508;DHT22;9383;50.928;12.116;2023-11-21T12:48:01;6.90;99.90
18508;DHT22;9383;50.928;12.116;2023-11-21T12:50:33;6.80;99.90
18508;DHT22;9383;50.928;12.116;2023-11-21T12:53:04;4.90;99.90
18508;DHT22;9383;50.928;12.116;2023-11-21T12:55:35;6.80;99.90
18508;DHT22;9383;50.928;12.116;2023-11-21T12:58:06;6.80;99.90
18508;DHT22;9383;50.928;12.116;2023-11-21T13:00:37;6.80;99.90
18508;DHT22;9383;50.928;12.116;2023-11-21T13:03:10;6.80;99.90
18508;DHT22;9383;50.928;12.116;2023-11-21T13:05:48;6.70;99.90
18508;DHT22;9383;50.928;12.116;2023-11-21T13:08:17;6.70;99.90
18508;DHT22;9383;50.928;12.116;2023-11-21T13:10:49;6.60;99.90
18508;DHT22;9383;50.928;12.116;2023-11-21T13:15:52;6.60;99.90
18508;DHT22;9383;50.928;12.116;2023-11-21T13:18:23;6.50;99.90
18508;DHT22;9383;50.928;12.116;2023-11-21T13:20:50;6.40;99.90
18508;DHT22;9383;50.928;12.116;2023-11-21T13:23:16;6.30;99.90
18508;DHT22;9383;50.928;12.116;2023-11-21T13:25:43;6.30;99.90
18508;DHT22;9383;50.928;12.116;2023-11-21T13:30:40;6.20;99.90
18508;DHT22;9383;50.928;12.116;2023-11-21T13:33:07;6.20;99.90
18508;DHT22;9383;50.928;12.116;2023-11-21T13:35:35;6.10;99.90
18508;DHT22;9383;50.928;12.116;2023-11-21T13:38:17;6.10;99.90
18508;DHT22;9383;50.928;12.116;2023-11-21T13:40:50;6.10;99.90
18508;DHT22;9383;50.928;12.116;2023-11-21T13:43:21;6.10;99.90
18508;DHT22;9383;50.928;12.116;2023-11-21T13:45:52;6.00;99.90
18508;DHT22;9383;50.928;12.116;2023-11-21T13:48:27;6.00;99.90
18508;DHT22;9383;50.928;12.116;2023-11-21T13:51:04;6.00;99.90
18508;DHT22;9383;50.928;12.116;2023-11-21T13:53:44;5.90;99.90
18508;DHT22;9383;50.928;12.116;2023-11-21T13:56:18;5.90;99.90
18508;DHT22;9383;50.928;12.116;2023-11-21T13:58:52;5.90;99.90
18508;DHT22;9383;50.928;12.116;2023-11-21T14:01:20;5.90;99.90
18508;DHT22;9383;50.928;12.116;2023-11-21T14:09:18;5.90;99.90
18508;DHT22;9383;50.928;12.116;2023-11-21T14:11:51;5.80;99.90
18508;DHT22;9383;50.928;12.116;2023-11-21T14:14:19;5.80;99.90
18508;DHT22;9383;50.928;12.116;2023-11-21T14:21:51;5.50;99.90
18508;DHT22;9383;50.928;12.116;2023-11-21T14:24:19;5.50;99.90
18508;DHT22;9383;50.928;12.116;2023-11-21T14:26:46;5.40;99.90
18508;DHT22;9383;50.928;12.116;2023-11-21T14:31:43;5.30;99.90
18508;DHT22;9383;50.928;12.116;2023-11-21T14:34:10;5.20;99.90
18508;DHT22;9383;50.928;12.116;2023-11-21T14:39:05;5.10;99.90
18508;DHT22;9383;50.928;12.116;2023-11-21T14:41:50;8.30;99.90
18508;DHT22;9383;50.928;12.116;2023-11-21T14:44:16;5.10;99.90
18508;DHT22;9383;50.928;12.116;2023-11-21T14:49:19;5.00;99.90
18508;DHT22;9383;50.928;12.116;2023-11-21T14:51:47;5.00;99.90
18508;DHT22;9383;50.928;12.116;2023-11-21T14:54:38;4.90;99.90
18508;DHT22;9383;50.928;12.116;2023-11-21T14:57:13;4.90;99.90
18508;DHT22;9383;50.928;12.116;2023-11-21T14:59:48;4.80;99.90
18508;DHT22;9383;50.928;12.116;2023-11-21T15:02:20;4.70;99.90
18508;DHT22;9383;50.928;12.116;2023-11-21T15:05:09;4.70;99.90
18508;DHT22;9383;50.928;12.116;2023-11-21T15:07:42;4.60;99.90
18508;DHT22;9383;50.928;12.116;2023-11-21T15:10:11;4.60;99.90
18508;DHT22;9383;50.928;12.116;2023-11-21T15:12:41;4.60;99.90
18508;DHT22;9383;50.928;12.116;2023-11-21T15:17:40;4.50;99.90
18508;DHT22;9383;50.928;12.116;2023-11-21T15:20:28;4.40;99.90
18508;DHT22;9383;50.928;12.116;2023-11-21T15:22:54;4.40;99.90
18508;DHT22;9383;50.928;12.116;2023-11-21T15:25:22;4.40;99.90
18508;DHT22;9383;50.928;12.116;2023-11-21T15:27:49;4.30;99.90
18508;DHT22;9383;50.928;12.116;2023-11-21T15:30:16;4.30;99.90
18508;DHT22;9383;50.928;12.116;2023-11-21T15:32:46;4.30;99.90
18508;DHT22;9383;50.928;12.116;2023-11-21T15:37:40;4.30;99.90
18508;DHT22;9383;50.928;12.116;2023-11-21T15:40:07;4.20;99.90
18508;DHT22;9383;50.928;12.116;2023-11-21T15:42:34;4.20;99.90
18508;DHT22;9383;50.928;12.116;2023-11-21T15:45:05;4.20;99.90
18508;DHT22;9383;50.928;12.116;2023-11-21T15:50:03;4.20;99.90
18508;DHT22;9383;50.928;12.116;2023-11-21T15:52:34;4.20;99.90
18508;DHT22;9383;50.928;12.116;2023-11-21T15:55:01;4.10;99.90
18508;DHT22;9383;50.928;12.116;2023-11-21T15:57:29;4.10;99.90
18508;DHT22;9383;50.928;12.116;2023-11-21T15:59:56;4.10;99.90
18508;DHT22;9383;50.928;12.116;2023-11-21T16:02:22;4.20;99.90
18508;DHT22;9383;50.928;12.116;2023-11-21T16:04:48;4.10;99.90
18508;DHT22;9383;50.928;12.116;2023-11-21T16:09:40;4.10;99.90
18508;DHT22;9383;50.928;12.116;2023-11-21T16:12:08;4.10;99.90
18508;DHT22;9383;50.928;12.116;2023-11-21T16:14:37;4.10;99.90
18508;DHT22;9383;50.928;12.116;2023-11-21T16:17:15;4.20;99.90
18508;DHT22;9383;50.928;12.116;2023-11-21T16:19:47;4.10;99.90
18508;DHT22;9383;50.928;12.116;2023-11-21T16:22:13;4.10;99.90
18508;DHT22;9383;50.928;12.116;2023-11-21T16:24:47;4.10;99.90
18508;DHT22;9383;50.928;12.116;2023-11-21T16:27:13;4.10;99.90
18508;DHT22;9383;50.928;12.116;2023-11-21T16:29:42;4.10;99.90
18508;DHT22;9383;50.928;12.116;2023-11-21T16:32:08;4.10;99.90
18508;DHT22;9383;50.928;12.116;2023-11-21T16:37:06;4.00;99.90
18508;DHT22;9383;50.928;12.116;2023-11-21T16:39:32;4.00;99.90
18508;DHT22;9383;50.928;12.116;2023-11-21T16:41:58;4.00;99.90
18508;DHT22;9383;50.928;12.116;2023-11-21T16:44:26;4.00;99.90
18508;DHT22;9383;50.928;12.116;2023-11-21T16:49:33;4.00;99.90
18508;DHT22;9383;50.928;12.116;2023-11-21T16:52:03;3.90;99.90
18508;DHT22;9383;50.928;12.116;2023-11-21T16:54:29;3.90;99.90
18508;DHT22;9383;50.928;12.116;2023-11-21T16:56:58;3.90;99.90
18508;DHT22;9383;50.928;12.116;2023-11-21T16:59:24;3.90;99.90
18508;DHT22;9383;50.928;12.116;2023-11-21T17:01:51;3.90;99.90
18508;DHT22;9383;50.928;12.116;2023-11-21T17:04:17;4.00;99.90
18508;DHT22;9383;50.928;12.116;2023-11-21T17:06:45;3.90;99.90
18508;DHT22;9383;50.928;12.116;2023-11-21T17:09:13;3.90;99.90
18508;DHT22;9383;50.928;12.116;2023-11-21T17:14:13;3.90;99.90
18508;DHT22;9383;50.928;12.116;2023-11-21T17:16:40;3.90;99.90
18508;DHT22;9383;50.928;12.116;2023-11-21T17:19:08;3.80;99.90
18508;DHT22;9383;50.928;12.116;2023-11-21T17:21:34;3.80;99.90
18508;DHT22;9383;50.928;12.116;2023-11-21T17:24:02;3.80;99.90
18508;DHT22;9383;50.928;12.116;2023-11-21T17:26:28;3.80;99.90
18508;DHT22;9383;50.928;12.116;2023-11-21T17:28:54;3.70;99.90
18508;DHT22;9383;50.928;12.116;2023-11-21T17:31:21;3.80;99.90
18508;DHT22;9383;50.928;12.116;2023-11-21T17:33:50;3.80;99.90
18508;DHT22;9383;50.928;12.116;2023-11-21T17:36:16;3.80;99.90
18508;DHT22;9383;50.928;12.116;2023-11-21T17:41:08;3.80;99.90
18508;DHT22;9383;50.928;12.116;2023-11-21T17:43:38;3.80;99.90
18508;DHT22;9383;50.928;12.116;2023-11-21T17:51:02;3.70;99.90